Time;durP1;ratioP1;P1;durP2;ratioP2;P2;SDS_P1;SDS_P2;PMS_P1;PMS_P2;Temp;Humidity;BMP_temperature;BMP_pressure;BME280_temperature;BME280_humidity;BME280_pressure;Samples;Min_cycle;Max_cycle;Signal;HPM_P1;HPM_P2
2022/03/13 00:01:42;;;;;;;41.38;19.13;;;-0.50;92.90;;;;;;4959627;28;20049;-86
2022/03/13 00:04:11;;;;;;;46.60;20.38;;;-0.50;92.30;;;;;;4971074;28;20137;-87
2022/03/13 00:06:37;;;;;;;41.65;17.63;;;-0.50;93.20;;;;;;4968880;28;20149;-88
2022/03/13 00:09:05;;;;;;;37.83;17.45;;;-0.40;93.00;;;;;;4971267;28;20603;-87
2022/03/13 00:11:31;;;;;;;37.58;18.00;;;-0.50;92.90;;;;;;4971717;28;20034;-90
2022/03/13 00:13:58;;;;;;;45.03;18.75;;;-0.50;92.90;;;;;;4969808;28;20023;-87
2022/03/13 00:16:25;;;;;;;39.33;19.30;;;-0.50;93.00;;;;;;4971744;28;20526;-87
2022/03/13 00:18:51;;;;;;;39.95;18.00;;;-0.60;92.60;;;;;;4971230;28;20043;-88
2022/03/13 00:21:19;;;;;;;39.53;19.50;;;-0.60;94.40;;;;;;4971246;28;20077;-89
2022/03/13 00:23:46;;;;;;;43.92;19.63;;;-0.70;95.50;;;;;;4969964;28;20031;-88
2022/03/13 00:26:13;;;;;;;41.35;18.27;;;-0.80;94.60;;;;;;4970291;28;20034;-89
2022/03/13 00:28:39;;;;;;;40.13;17.45;;;-0.80;93.20;;;;;;4970897;28;20034;-89
2022/03/13 00:31:06;;;;;;;39.40;17.38;;;-0.90;94.30;;;;;;4968944;28;20046;-89
2022/03/13 00:33:32;;;;;;;37.60;17.75;;;-0.80;94.20;;;;;;4971004;28;20027;-87
2022/03/13 00:35:58;;;;;;;39.47;17.20;;;-0.90;93.70;;;;;;4970784;28;20027;-86
2022/03/13 00:38:25;;;;;;;41.35;19.48;;;-0.90;93.60;;;;;;4986832;28;20031;-87
2022/03/13 00:40:55;;;;;;;34.80;17.85;;;-0.90;95.40;;;;;;4970459;28;20053;-88
2022/03/13 00:43:23;;;;;;;37.70;19.38;;;-1.00;94.70;;;;;;4955351;28;20062;-85
2022/03/13 00:45:50;;;;;;;34.28;17.65;;;-1.00;94.50;;;;;;4971557;28;20494;-86
2022/03/13 00:48:16;;;;;;;40.55;17.55;;;-1.10;95.20;;;;;;4956682;28;20148;-88
2022/03/13 00:50:43;;;;;;;39.50;17.92;;;-1.20;94.80;;;;;;4971488;28;20415;-88
2022/03/13 00:53:10;;;;;;;44.20;17.70;;;-1.30;95.80;;;;;;4972669;28;20038;-86
2022/03/13 00:55:36;;;;;;;42.60;19.55;;;-1.20;96.30;;;;;;4971997;28;20042;-87
2022/03/13 00:58:02;;;;;;;42.60;20.25;;;-1.20;96.40;;;;;;4969359;28;20026;-86
2022/03/13 01:00:28;;;;;;;39.30;19.02;;;-1.10;96.40;;;;;;4970607;28;20106;-88
2022/03/13 01:02:54;;;;;;;34.92;17.58;;;-1.10;95.40;;;;;;4971345;28;20378;-88
2022/03/13 01:05:24;;;;;;;34.60;17.85;;;-1.20;95.40;;;;;;4970930;28;20034;-87
2022/03/13 01:07:51;;;;;;;46.22;21.92;;;-1.20;96.30;;;;;;4952218;28;20064;-90
2022/03/13 01:10:17;;;;;;;37.92;18.73;;;-1.20;98.20;;;;;;4970227;28;20141;-86
2022/03/13 01:12:43;;;;;;;45.33;21.08;;;-1.10;97.80;;;;;;4970672;28;20089;-89
2022/03/13 01:15:10;;;;;;;39.08;19.05;;;-1.00;97.50;;;;;;4971018;28;20038;-88
2022/03/13 01:17:36;;;;;;;43.38;20.80;;;-1.00;97.50;;;;;;4971055;28;20030;-87
2022/03/13 01:20:04;;;;;;;44.67;18.00;;;-1.00;97.70;;;;;;4969251;28;20035;-88
2022/03/13 01:22:29;;;;;;;36.63;19.20;;;-1.10;97.90;;;;;;4970872;28;20023;-87
2022/03/13 01:24:55;;;;;;;42.03;18.23;;;-1.20;96.30;;;;;;4970869;28;20372;-88
2022/03/13 01:27:22;;;;;;;41.05;20.30;;;-1.30;97.70;;;;;;4960316;28;20570;-88
2022/03/13 01:29:48;;;;;;;39.92;19.10;;;-1.40;99.00;;;;;;4963355;28;20105;-87
2022/03/13 01:32:15;;;;;;;38.92;19.30;;;-1.40;98.10;;;;;;4968653;28;20031;-86
2022/03/13 01:34:42;;;;;;;47.45;19.13;;;-1.40;99.20;;;;;;4970440;28;20019;-89
2022/03/13 01:37:29;;;;;;;39.50;19.55;;;-1.20;99.70;;;;;;4970203;28;20052;-88
2022/03/13 01:40:10;;;;;;;37.58;18.35;;;-1.20;98.10;;;;;;4968491;28;20058;-90
2022/03/13 01:42:36;;;;;;;38.22;19.02;;;-1.30;98.30;;;;;;4969784;28;20475;-87
2022/03/13 01:45:03;;;;;;;43.88;19.42;;;-1.50;99.80;;;;;;4975151;28;20039;-88
2022/03/13 01:47:29;;;;;;;34.65;18.48;;;-1.50;98.90;;;;;;4975045;28;20469;-88
2022/03/13 01:49:55;;;;;;;41.58;16.92;;;-1.60;99.90;;;;;;4971701;28;20042;-89
2022/03/13 01:52:25;;;;;;;38.15;17.90;;;-1.50;99.90;;;;;;4974371;28;20022;-88
2022/03/13 01:54:51;;;;;;;35.28;15.27;;;-1.40;99.40;;;;;;4974870;28;20031;-88
2022/03/13 01:57:20;;;;;;;47.33;18.65;;;-1.30;98.20;;;;;;4970258;28;20030;-89
2022/03/13 01:59:58;;;;;;;34.72;17.40;;;-1.10;97.20;;;;;;4972279;28;20035;-87
2022/03/13 02:02:28;;;;;;;37.90;15.48;;;-1.10;96.40;;;;;;4972350;28;20042;-88
2022/03/13 02:04:56;;;;;;;38.17;18.23;;;-1.10;96.60;;;;;;4974014;28;20101;-89
2022/03/13 02:07:24;;;;;;;39.90;17.67;;;-1.00;96.70;;;;;;4968391;28;20037;-87
2022/03/13 02:09:50;;;;;;;39.85;17.67;;;-1.00;96.60;;;;;;4973509;28;20027;-90
2022/03/13 02:12:19;;;;;;;43.25;19.25;;;-1.00;96.90;;;;;;4973878;28;20108;-87
2022/03/13 02:14:45;;;;;;;38.88;18.08;;;-1.00;96.70;;;;;;4973861;28;20054;-87
2022/03/13 02:17:11;;;;;;;32.85;16.95;;;-0.90;97.00;;;;;;4973816;28;20031;-89
2022/03/13 02:19:37;;;;;;;37.33;18.17;;;-0.80;96.70;;;;;;4973294;28;20031;-86
2022/03/13 02:22:02;;;;;;;33.90;16.10;;;-0.80;96.10;;;;;;4972514;28;20042;-89
2022/03/13 02:24:28;;;;;;;37.28;17.52;;;-0.90;96.50;;;;;;4974019;28;20090;-90
2022/03/13 02:27:00;;;;;;;43.05;18.42;;;-1.00;95.90;;;;;;4973583;28;20047;-87
2022/03/13 02:29:26;;;;;;;37.95;18.08;;;-1.10;96.10;;;;;;4972383;28;20478;-88
2022/03/13 02:31:53;;;;;;;39.15;16.52;;;-1.00;96.50;;;;;;4970474;28;20090;-89
2022/03/13 02:34:20;;;;;;;40.22;17.70;;;-0.90;95.90;;;;;;4971360;28;20228;-89
2022/03/13 02:36:51;;;;;;;33.53;16.60;;;-0.80;95.40;;;;;;4973394;28;20035;-89
2022/03/13 02:39:18;;;;;;;38.80;16.85;;;-0.80;95.50;;;;;;4973533;28;20034;-89
2022/03/13 02:41:44;;;;;;;41.85;18.77;;;-0.90;95.10;;;;;;4972092;28;20039;-88
2022/03/13 02:44:14;;;;;;;39.22;17.10;;;-0.90;95.20;;;;;;4973077;28;20113;-90
2022/03/13 02:47:04;;;;;;;37.25;17.33;;;-0.90;99.50;;;;;;4969665;28;20031;-88
2022/03/13 02:49:31;;;;;;;48.55;17.23;;;-0.90;99.90;;;;;;4969938;28;20034;-89
2022/03/13 02:52:03;;;;;;;39.53;17.45;;;-1.00;97.00;;;;;;4973045;28;20264;-88
2022/03/13 02:54:29;;;;;;;36.10;17.48;;;-0.90;94.40;;;;;;4973065;28;20027;-86
2022/03/13 02:56:55;;;;;;;32.88;15.45;;;-0.90;94.40;;;;;;4969808;28;20030;-88
2022/03/13 02:59:21;;;;;;;40.05;15.90;;;-1.00;93.80;;;;;;4971547;28;20057;-89
2022/03/13 03:01:48;;;;;;;33.22;17.05;;;-1.10;94.50;;;;;;4970661;28;20042;-91
2022/03/13 03:04:15;;;;;;;35.75;18.08;;;-1.40;95.20;;;;;;4972469;28;20242;-89
2022/03/13 03:06:51;;;;;;;35.90;15.75;;;-1.60;96.50;;;;;;4972426;28;20414;-88
2022/03/13 03:09:18;;;;;;;35.75;17.60;;;-1.70;96.60;;;;;;4972476;28;20035;-87
2022/03/13 03:11:44;;;;;;;31.48;15.70;;;-1.70;97.00;;;;;;4971342;28;20529;-89
2022/03/13 03:14:10;;;;;;;50.05;16.83;;;-1.80;97.10;;;;;;4972845;28;20245;-90
2022/03/13 03:16:36;;;;;;;37.58;15.95;;;-1.90;96.40;;;;;;4972685;28;20031;-88
2022/03/13 03:19:02;;;;;;;39.92;17.58;;;-2.00;97.60;;;;;;4971266;28;20058;-90
2022/03/13 03:21:27;;;;;;;36.97;16.30;;;-2.00;98.40;;;;;;4971789;28;20368;-89
2022/03/13 03:23:53;;;;;;;45.00;16.38;;;-2.00;97.50;;;;;;4969978;28;20031;-87
2022/03/13 03:26:19;;;;;;;34.92;15.52;;;-2.10;97.40;;;;;;4967990;28;20035;-86
2022/03/13 03:28:45;;;;;;;33.72;15.25;;;-2.20;98.90;;;;;;4971783;28;20037;-88
2022/03/13 03:31:11;;;;;;;32.58;15.68;;;-2.30;99.10;;;;;;4971627;28;20038;-88
2022/03/13 03:33:37;;;;;;;32.95;17.30;;;-2.30;98.70;;;;;;4970816;28;20478;-88
2022/03/13 03:36:02;;;;;;;40.63;16.73;;;-2.40;99.90;;;;;;4962852;28;20049;-88
2022/03/13 03:38:28;;;;;;;33.55;16.85;;;-2.40;99.20;;;;;;4972076;28;20450;-87
2022/03/13 03:40:54;;;;;;;40.13;15.88;;;-2.40;99.90;;;;;;4986771;28;20027;-88
2022/03/13 03:43:19;;;;;;;42.22;16.55;;;-2.30;98.10;;;;;;4986752;28;20418;-88
2022/03/13 03:45:45;;;;;;;38.97;16.67;;;-2.30;97.90;;;;;;4972007;28;20085;-88
2022/03/13 03:48:10;;;;;;;30.95;15.98;;;-2.30;98.20;;;;;;4971368;28;20026;-86
2022/03/13 03:50:36;;;;;;;32.92;14.15;;;-2.30;97.00;;;;;;4971153;28;20035;-88
2022/03/13 03:53:02;;;;;;;27.77;14.10;;;-2.40;96.30;;;;;;4970977;28;20031;-89
2022/03/13 03:55:28;;;;;;;32.10;15.35;;;-2.40;95.70;;;;;;4972231;28;20027;-89
2022/03/13 03:57:56;;;;;;;34.38;15.20;;;-2.50;95.80;;;;;;4972058;28;20031;-89
2022/03/13 04:00:24;;;;;;;31.65;15.43;;;-2.50;97.20;;;;;;4970620;28;20023;-87
2022/03/13 04:02:50;;;;;;;25.45;14.23;;;-2.40;96.80;;;;;;4971383;28;20067;-88
2022/03/13 04:05:16;;;;;;;27.08;13.13;;;-2.30;96.60;;;;;;4967989;28;20619;-87
2022/03/13 04:07:42;;;;;;;25.42;12.85;;;-2.30;95.70;;;;;;4968369;28;20037;-89
2022/03/13 04:10:09;;;;;;;32.15;14.80;;;-2.40;94.80;;;;;;4970488;28;20035;-90
2022/03/13 04:12:35;;;;;;;28.98;13.15;;;-2.40;95.30;;;;;;4970548;28;20428;-89
2022/03/13 04:15:01;;;;;;;27.48;13.90;;;-2.60;94.90;;;;;;4971075;28;20026;-86
2022/03/13 04:17:28;;;;;;;29.50;12.93;;;-2.70;95.20;;;;;;4971455;28;20037;-88
2022/03/13 04:19:54;;;;;;;30.27;14.23;;;-2.70;95.20;;;;;;4971769;28;20033;-89
2022/03/13 04:22:19;;;;;;;33.88;14.75;;;-2.60;96.00;;;;;;4971184;28;20035;-89
2022/03/13 04:24:45;;;;;;;34.28;14.90;;;-2.40;96.00;;;;;;4970793;28;20039;-91
2022/03/13 04:27:11;;;;;;;29.70;14.15;;;-2.50;96.80;;;;;;4970167;28;20493;-88
2022/03/13 04:29:37;;;;;;;33.80;14.52;;;-2.60;98.10;;;;;;4971432;28;20042;-91
2022/03/13 04:32:05;;;;;;;31.05;13.30;;;-2.60;98.00;;;;;;4970826;28;20031;-89
2022/03/13 04:34:31;;;;;;;33.42;15.85;;;-2.70;97.90;;;;;;4971291;28;20057;-87
2022/03/13 04:37:00;;;;;;;29.88;13.57;;;-2.80;98.20;;;;;;4969023;28;20064;-86
2022/03/13 04:39:27;;;;;;;30.80;14.55;;;-2.80;99.10;;;;;;4951990;28;20037;-89
2022/03/13 04:41:54;;;;;;;33.33;14.98;;;-2.80;99.30;;;;;;4968962;28;20037;-90
2022/03/13 04:44:21;;;;;;;34.00;15.27;;;-2.70;98.40;;;;;;4970676;28;20030;-86
2022/03/13 04:46:47;;;;;;;29.40;14.48;;;-2.70;97.40;;;;;;4970842;28;20054;-92
2022/03/13 04:49:13;;;;;;;30.25;13.60;;;-2.80;97.60;;;;;;4969153;28;20066;-87
2022/03/13 04:51:39;;;;;;;35.25;13.20;;;-2.90;97.90;;;;;;4971448;28;20027;-89
2022/03/13 04:54:07;;;;;;;30.60;12.82;;;-3.00;98.30;;;;;;4970722;28;20034;-90
2022/03/13 04:56:33;;;;;;;28.70;14.55;;;-3.00;99.90;;;;;;4969570;28;20371;-89
2022/03/13 04:59:00;;;;;;;32.17;15.50;;;-3.00;99.90;;;;;;4971759;28;20088;-88
2022/03/13 05:01:26;;;;;;;32.60;14.50;;;-2.90;99.00;;;;;;4969013;28;20078;-89
2022/03/13 05:03:53;;;;;;;29.60;14.70;;;-2.80;98.70;;;;;;4970511;28;20043;-89
2022/03/13 05:06:19;;;;;;;33.80;15.77;;;-2.70;98.40;;;;;;4970576;28;20080;-88
2022/03/13 05:08:45;;;;;;;29.50;15.05;;;-2.70;97.90;;;;;;4969292;28;20058;-89
2022/03/13 05:11:10;;;;;;;30.63;15.40;;;-2.60;97.70;;;;;;4970771;28;20073;-88
2022/03/13 05:13:36;;;;;;;30.05;12.43;;;-2.70;97.80;;;;;;4969320;28;20514;-87
2022/03/13 05:16:02;;;;;;;25.63;12.68;;;-2.60;96.50;;;;;;4968524;28;20039;-90
2022/03/13 05:18:29;;;;;;;31.48;14.32;;;-2.60;96.20;;;;;;4970683;28;20039;-86
2022/03/13 05:20:55;;;;;;;35.67;13.27;;;-2.70;97.00;;;;;;4970897;28;20026;-87
2022/03/13 05:23:21;;;;;;;31.08;13.82;;;-2.80;98.40;;;;;;4970560;28;20819;-88
2022/03/13 05:25:47;;;;;;;29.65;12.52;;;-2.80;99.20;;;;;;4969175;28;20042;-88
2022/03/13 05:28:12;;;;;;;26.77;12.75;;;-2.80;98.50;;;;;;4970581;28;20023;-88
2022/03/13 05:30:39;;;;;;;24.15;12.50;;;-2.80;97.50;;;;;;4970653;28;20042;-87
2022/03/13 05:33:05;;;;;;;27.90;11.23;;;-2.80;97.50;;;;;;4970212;28;20046;-87
2022/03/13 05:35:31;;;;;;;22.75;10.85;;;-2.90;96.90;;;;;;4970604;28;20086;-88
2022/03/13 05:37:57;;;;;;;25.15;12.40;;;-3.00;96.30;;;;;;4968494;28;20039;-87
2022/03/13 05:40:23;;;;;;;21.20;11.20;;;-3.10;97.50;;;;;;4985767;28;20386;-88
2022/03/13 05:42:54;;;;;;;22.55;11.23;;;-3.10;96.90;;;;;;4969211;28;20030;-87
2022/03/13 05:45:20;;;;;;;22.88;11.02;;;-3.10;97.80;;;;;;4970151;28;20031;-90
2022/03/13 05:47:51;;;;;;;28.80;12.32;;;-3.10;99.30;;;;;;4970103;28;20053;-86
2022/03/13 05:50:18;;;;;;;22.48;10.98;;;-3.10;98.00;;;;;;4962428;28;20149;-86
2022/03/13 05:52:45;;;;;;;25.65;11.85;;;-3.00;97.10;;;;;;4969092;28;20481;-88
2022/03/13 05:55:12;;;;;;;19.40;10.02;;;-3.10;97.40;;;;;;4970392;28;20359;-89
2022/03/13 05:57:37;;;;;;;20.25;10.35;;;-3.10;96.60;;;;;;4970010;28;20030;-89
2022/03/13 06:00:06;;;;;;;24.85;10.98;;;-3.00;95.60;;;;;;4968469;28;20042;-88
2022/03/13 06:02:32;;;;;;;24.20;10.93;;;-3.00;95.90;;;;;;4969606;28;20046;-88
2022/03/13 06:04:58;;;;;;;23.25;11.13;;;-3.00;95.90;;;;;;4970417;28;20030;-88
2022/03/13 06:07:24;;;;;;;21.40;11.55;;;-2.90;95.90;;;;;;4966471;28;20159;-87
2022/03/13 06:09:52;;;;;;;26.02;12.60;;;-3.00;95.60;;;;;;4968272;28;20038;-88
2022/03/13 06:12:18;;;;;;;22.90;10.75;;;-3.10;95.10;;;;;;4981054;28;20220;-89
2022/03/13 06:14:44;;;;;;;29.13;11.73;;;-2.90;93.70;;;;;;4968417;28;20047;-89
2022/03/13 06:17:09;;;;;;;22.70;10.57;;;-2.80;92.40;;;;;;4969588;28;20035;-89
2022/03/13 06:19:39;;;;;;;20.30;9.75;;;-2.60;92.00;;;;;;4969049;28;20126;-89
2022/03/13 06:22:05;;;;;;;23.83;11.10;;;-2.50;91.90;;;;;;4967838;28;20031;-89
2022/03/13 06:24:32;;;;;;;28.77;11.90;;;-2.40;91.90;;;;;;4952696;28;20146;-90
2022/03/13 06:26:58;;;;;;;22.95;11.00;;;-2.30;92.00;;;;;;4970491;28;20077;-88
2022/03/13 06:29:24;;;;;;;18.52;10.13;;;-2.30;91.90;;;;;;4937990;28;20035;-90
2022/03/13 06:31:51;;;;;;;21.42;12.30;;;-2.20;92.00;;;;;;4971878;28;20038;-87
2022/03/13 06:34:16;;;;;;;27.70;11.68;;;-2.30;91.50;;;;;;4970247;28;20490;-88
2022/03/13 06:36:44;;;;;;;20.15;10.50;;;-2.20;91.80;;;;;;4973495;28;20027;-88
2022/03/13 06:39:09;;;;;;;24.83;10.55;;;-2.00;91.80;;;;;;4973729;28;20023;-88
2022/03/13 06:41:36;;;;;;;29.10;11.95;;;-1.80;91.60;;;;;;4973297;28;20038;-90
2022/03/13 06:44:01;;;;;;;26.85;12.98;;;-1.80;91.70;;;;;;4972887;28;20026;-89
2022/03/13 06:46:27;;;;;;;25.25;12.13;;;-1.70;91.60;;;;;;4972738;28;20019;-88
2022/03/13 06:48:53;;;;;;;27.92;12.35;;;-1.70;91.80;;;;;;4973497;28;20494;-88
2022/03/13 06:51:20;;;;;;;25.80;11.88;;;-1.50;92.10;;;;;;4973649;28;20042;-89
2022/03/13 06:53:45;;;;;;;24.52;12.35;;;-1.50;91.80;;;;;;4972432;28;20031;-90
2022/03/13 06:56:12;;;;;;;33.38;12.27;;;-1.40;91.90;;;;;;4986317;28;20046;-89
2022/03/13 06:58:39;;;;;;;34.80;13.27;;;-1.40;92.90;;;;;;4972070;28;20023;-88
2022/03/13 07:01:06;;;;;;;25.55;12.85;;;-1.20;93.20;;;;;;4972314;28;20192;-91
2022/03/13 07:03:32;;;;;;;27.88;11.63;;;-1.00;92.50;;;;;;4973519;28;20135;-88
2022/03/13 07:05:58;;;;;;;24.23;11.07;;;-0.80;91.50;;;;;;4986797;28;20078;-89
2022/03/13 07:08:24;;;;;;;25.38;12.35;;;-0.70;90.40;;;;;;4972238;28;20031;-89
2022/03/13 07:10:50;;;;;;;29.98;12.93;;;-0.60;90.40;;;;;;4973225;28;20090;-87
2022/03/13 07:13:18;;;;;;;24.58;11.63;;;-0.50;90.30;;;;;;4973153;28;20491;-90
2022/03/13 07:15:45;;;;;;;23.85;10.48;;;-0.50;87.60;;;;;;4973058;28;20022;-89
2022/03/13 07:18:10;;;;;;;22.33;10.05;;;-0.50;84.70;;;;;;4970747;28;20034;-90
2022/03/13 07:20:36;;;;;;;24.17;10.73;;;-0.30;84.80;;;;;;4973223;28;20141;-88
2022/03/13 07:23:02;;;;;;;31.60;11.77;;;-0.10;77.50;;;;;;4964753;28;20418;-89
2022/03/13 07:25:27;;;;;;;21.38;11.82;;;0.00;77.60;;;;;;4952401;29;20073;-86
2022/03/13 07:27:53;;;;;;;26.15;10.68;;;0.20;75.30;;;;;;4967253;28;20042;-89
2022/03/13 07:30:19;;;;;;;28.05;11.82;;;0.30;75.30;;;;;;4969368;28;20152;-90
2022/03/13 07:32:45;;;;;;;26.30;11.30;;;0.40;76.20;;;;;;4971314;28;20031;-88
2022/03/13 07:35:11;;;;;;;25.02;9.45;;;0.50;77.40;;;;;;4972636;28;20019;-88
2022/03/13 07:37:37;;;;;;;21.08;10.73;;;0.40;71.40;;;;;;4971210;28;20033;-87
2022/03/13 07:40:04;;;;;;;22.23;11.02;;;0.50;69.00;;;;;;4970509;28;20066;-88
2022/03/13 07:42:30;;;;;;;27.13;9.70;;;0.50;67.70;;;;;;4971982;28;20031;-89
2022/03/13 07:44:56;;;;;;;24.13;11.98;;;0.60;70.10;;;;;;4970119;28;20490;-89
2022/03/13 07:47:21;;;;;;;28.48;12.52;;;0.70;72.20;;;;;;4972148;28;20217;-86
2022/03/13 07:49:47;;;;;;;30.38;11.68;;;0.90;74.30;;;;;;4971926;28;20393;-87
2022/03/13 07:52:13;;;;;;;21.60;10.00;;;1.00;71.90;;;;;;4971822;28;20026;-90
2022/03/13 07:54:38;;;;;;;39.55;12.07;;;1.20;70.80;;;;;;4966300;28;20533;-89
2022/03/13 07:57:04;;;;;;;28.88;12.90;;;1.30;71.70;;;;;;4971919;28;20030;-90
2022/03/13 07:59:30;;;;;;;28.80;13.40;;;1.30;74.60;;;;;;4971261;28;20133;-88
2022/03/13 08:01:56;;;;;;;29.55;12.18;;;1.30;72.50;;;;;;4971509;28;20056;-88
2022/03/13 08:04:21;;;;;;;29.50;13.60;;;1.40;71.70;;;;;;4971275;28;20129;-87
2022/03/13 08:06:47;;;;;;;21.70;10.90;;;1.60;71.70;;;;;;4970537;28;20027;-88
2022/03/13 08:09:13;;;;;;;29.88;13.70;;;1.80;70.00;;;;;;4971914;28;20027;-90
2022/03/13 08:11:39;;;;;;;21.20;12.27;;;2.10;69.40;;;;;;4966668;28;20061;-87
2022/03/13 08:14:10;;;;;;;30.20;12.10;;;2.20;69.40;;;;;;4971556;28;20031;-86
2022/03/13 08:16:35;;;;;;;;;;;2.30;67.90;;;;;;4955463;28;20842;-85
2022/03/13 08:19:03;;;;;;;25.13;13.43;;;2.50;68.20;;;;;;4970204;28;19910;-88
2022/03/13 08:21:28;;;;;;;29.52;15.02;;;2.50;68.50;;;;;;4969896;28;20033;-86
2022/03/13 08:23:55;;;;;;;28.55;14.50;;;2.40;68.70;;;;;;4971403;28;20387;-90
2022/03/13 08:26:21;;;;;;;23.95;13.23;;;2.80;68.60;;;;;;4971335;28;20023;-88
2022/03/13 08:28:47;;;;;;;22.88;12.10;;;3.00;65.40;;;;;;4970271;28;20362;-87
2022/03/13 08:31:13;;;;;;;27.25;13.02;;;3.20;63.30;;;;;;4969670;28;20046;-88
2022/03/13 08:33:40;;;;;;;28.52;12.32;;;3.40;64.50;;;;;;4971563;28;20039;-88
2022/03/13 08:36:05;;;;;;;23.60;12.32;;;3.50;64.00;;;;;;4966152;28;20035;-87
2022/03/13 08:38:31;;;;;;;25.10;14.57;;;3.70;65.50;;;;;;4969005;28;20038;-87
2022/03/13 08:40:57;;;;;;;26.48;13.82;;;3.80;64.00;;;;;;4969374;28;20490;-86
2022/03/13 08:43:23;;;;;;;23.95;14.38;;;3.80;64.10;;;;;;4970295;28;20190;-87
2022/03/13 08:45:48;;;;;;;24.70;13.38;;;3.90;62.60;;;;;;4970656;28;20027;-85
2022/03/13 08:48:15;;;;;;;24.75;14.55;;;4.00;62.30;;;;;;4985189;28;20438;-85
2022/03/13 08:50:40;;;;;;;23.98;12.38;;;4.30;62.40;;;;;;4970694;28;20035;-87
2022/03/13 08:53:07;;;;;;;40.22;15.45;;;4.60;59.30;;;;;;4969489;28;20081;-85
2022/03/13 08:55:33;;;;;;;23.90;13.18;;;4.80;59.70;;;;;;4970615;28;20026;-86
2022/03/13 08:57:58;;;;;;;25.52;12.35;;;5.00;59.90;;;;;;4968899;28;20031;-84
2022/03/13 09:00:26;;;;;;;30.90;13.13;;;5.20;58.20;;;;;;4968133;28;20057;-86
2022/03/13 09:02:53;;;;;;;25.65;13.05;;;5.20;57.50;;;;;;4969066;28;20048;-85
2022/03/13 09:05:19;;;;;;;27.67;13.63;;;5.30;58.80;;;;;;4968563;28;20037;-85
2022/03/13 09:07:44;;;;;;;22.27;13.35;;;5.50;56.70;;;;;;4965929;28;20030;-86
2022/03/13 09:10:11;;;;;;;24.98;14.32;;;5.80;57.50;;;;;;4969720;28;20038;-85
2022/03/13 09:12:38;;;;;;;21.00;11.68;;;6.00;56.40;;;;;;4968867;28;20446;-84
2022/03/13 09:15:06;;;;;;;27.45;14.00;;;6.20;56.40;;;;;;4969287;28;20094;-84
2022/03/13 09:17:32;;;;;;;23.77;12.90;;;6.50;56.30;;;;;;4967224;28;20185;-86
2022/03/13 09:19:58;;;;;;;29.92;13.98;;;6.60;56.90;;;;;;4969819;28;20434;-86
2022/03/13 09:22:30;;;;;;;25.50;14.13;;;6.80;55.00;;;;;;4968464;28;20065;-84
2022/03/13 09:24:57;;;;;;;28.13;14.38;;;7.00;54.10;;;;;;4969798;28;20030;-85
2022/03/13 09:27:27;;;;;;;25.50;14.00;;;6.90;53.20;;;;;;4967896;28;20069;-86
2022/03/13 09:29:54;;;;;;;23.85;12.88;;;6.80;54.60;;;;;;4969538;28;20026;-85
2022/03/13 09:32:22;;;;;;;24.50;13.40;;;7.10;52.80;;;;;;4969170;28;20513;-85
2022/03/13 09:34:48;;;;;;;23.60;11.93;;;7.40;53.10;;;;;;4965976;28;20073;-86
2022/03/13 09:37:14;;;;;;;22.40;13.05;;;7.50;51.40;;;;;;4967936;28;20478;-85
2022/03/13 09:39:40;;;;;;;24.90;13.10;;;7.80;51.80;;;;;;4968927;28;20121;-85
2022/03/13 09:42:05;;;;;;;25.70;10.60;;;8.00;50.20;;;;;;4968358;28;20320;-86
2022/03/13 09:44:31;;;;;;;21.90;12.95;;;8.20;50.80;;;;;;4965644;28;20047;-85
2022/03/13 09:46:57;;;;;;;21.35;12.25;;;8.40;51.10;;;;;;4969893;28;20047;-86
2022/03/13 09:49:24;;;;;;;18.88;12.70;;;8.40;49.50;;;;;;4968140;28;20039;-83
2022/03/13 09:51:51;;;;;;;22.80;13.13;;;8.40;49.40;;;;;;4970326;28;20050;-85
2022/03/13 09:54:17;;;;;;;28.17;13.27;;;8.60;49.70;;;;;;4969227;28;20027;-85
2022/03/13 09:56:42;;;;;;;27.02;12.98;;;8.80;49.70;;;;;;4969739;28;20030;-83
2022/03/13 09:59:08;;;;;;;22.45;13.18;;;9.10;50.00;;;;;;4968416;28;20386;-83
2022/03/13 10:01:34;;;;;;;24.48;13.68;;;9.20;49.70;;;;;;4969020;28;20165;-84
2022/03/13 10:04:00;;;;;;;23.77;13.70;;;9.40;49.30;;;;;;4972730;28;20054;-85
2022/03/13 10:06:26;;;;;;;29.48;14.90;;;9.60;49.30;;;;;;4973025;28;20037;-82
2022/03/13 10:08:52;;;;;;;27.92;15.45;;;9.70;48.40;;;;;;4973066;28;20031;-83
2022/03/13 10:11:33;;;;;;;31.77;17.52;;;9.30;49.10;;;;;;4971531;28;20034;-86
2022/03/13 10:14:10;;;;;;;34.78;14.45;;;9.20;49.70;;;;;;4973156;28;20482;-83
2022/03/13 10:16:39;;;;;;;24.45;14.48;;;9.30;50.50;;;;;;4973086;28;20038;-83
2022/03/13 10:19:18;;;;;;;27.17;16.33;;;9.60;51.20;;;;;;4971063;28;20031;-82
2022/03/13 10:22:03;;;;;;;26.75;16.13;;;9.80;50.50;;;;;;4972862;28;20028;-83
2022/03/13 10:24:30;;;;;;;26.73;16.10;;;10.10;49.60;;;;;;4966897;28;20387;-83
2022/03/13 10:27:20;;;;;;;25.88;16.05;;;10.20;49.70;;;;;;4969153;28;20626;-83
2022/03/13 10:29:47;;;;;;;30.35;17.00;;;10.30;48.80;;;;;;4972719;28;20093;-83
2022/03/13 10:32:14;;;;;;;26.90;15.32;;;10.50;48.60;;;;;;4970655;28;20043;-83
2022/03/13 10:34:40;;;;;;;26.90;16.08;;;10.10;49.50;;;;;;4972717;28;20023;-82
2022/03/13 10:37:07;;;;;;;27.20;15.10;;;10.20;49.50;;;;;;4969424;28;20032;-84
2022/03/13 10:39:34;;;;;;;24.25;14.57;;;10.60;48.20;;;;;;4973810;28;20034;-83
2022/03/13 10:42:03;;;;;;;26.30;15.27;;;10.60;48.50;;;;;;4971910;28;20416;-84
2022/03/13 10:44:36;;;;;;;28.73;16.27;;;10.70;47.90;;;;;;4973174;28;20343;-83
2022/03/13 10:47:08;;;;;;;26.42;14.38;;;11.00;47.20;;;;;;4973132;28;20042;-81
2022/03/13 10:49:37;;;;;;;24.23;13.60;;;11.00;46.20;;;;;;4972035;28;20363;-83
2022/03/13 10:52:25;;;;;;;24.85;14.18;;;11.40;45.70;;;;;;4971290;28;20053;-83
2022/03/13 10:54:52;;;;;;;19.45;12.63;;;11.80;43.00;;;;;;4972319;28;20018;-81
2022/03/13 10:57:19;;;;;;;21.77;11.57;;;12.20;41.00;;;;;;4972135;28;20027;-81
2022/03/13 10:59:45;;;;;;;22.58;12.75;;;12.60;40.40;;;;;;4971391;28;20023;-82
2022/03/13 11:02:15;;;;;;;23.38;12.93;;;12.50;39.30;;;;;;4973068;28;20043;-82
2022/03/13 11:04:52;;;;;;;22.17;12.60;;;13.10;37.30;;;;;;4972684;28;20462;-82
2022/03/13 11:07:19;;;;;;;22.45;12.48;;;13.30;36.60;;;;;;4970427;28;20121;-80
2022/03/13 11:09:45;;;;;;;20.00;12.90;;;13.00;35.30;;;;;;4971427;28;20134;-81
2022/03/13 11:12:17;;;;;;;20.83;12.30;;;13.20;35.20;;;;;;4971739;28;20027;-81
2022/03/13 11:14:45;;;;;;;21.83;13.45;;;13.30;36.30;;;;;;4968261;28;20031;-81
2022/03/13 11:17:11;;;;;;;20.30;12.75;;;13.80;34.50;;;;;;4970753;28;20027;-81
2022/03/13 11:19:40;;;;;;;21.52;12.35;;;14.70;32.60;;;;;;4969479;28;20514;-80
2022/03/13 11:22:08;;;;;;;21.80;13.65;;;14.30;32.30;;;;;;4968912;28;20042;-80
2022/03/13 11:24:36;;;;;;;19.58;13.82;;;14.70;33.90;;;;;;4968889;28;20065;-81
2022/03/13 11:27:08;;;;;;;24.08;14.80;;;15.10;31.60;;;;;;4969077;28;20030;-80
2022/03/13 11:29:52;;;;;;;23.58;13.38;;;14.80;32.50;;;;;;4970806;28;20030;-80
2022/03/13 11:32:35;;;;;;;23.60;14.07;;;14.90;32.50;;;;;;4971316;28;20038;-80
2022/03/13 11:35:18;;;;;;;21.67;12.75;;;14.60;32.10;;;;;;4969293;28;20042;-80
2022/03/13 11:37:50;;;;;;;23.88;13.98;;;14.20;33.50;;;;;;4971344;28;20110;-81
2022/03/13 11:40:30;;;;;;;23.90;13.48;;;14.00;35.20;;;;;;4971411;28;20031;-81
2022/03/13 11:43:04;;;;;;;24.38;13.48;;;14.20;34.60;;;;;;4973404;28;20054;-80
2022/03/13 11:45:35;;;;;;;24.77;13.82;;;14.10;33.80;;;;;;4972984;28;20046;-80
2022/03/13 11:48:19;;;;;;;;;;;14.60;33.80;;;;;;4970733;28;20034;-79
2022/03/13 11:50:52;;;;;;;20.67;12.00;;;15.00;31.90;;;;;;4969251;28;19925;-80
2022/03/13 11:53:26;;;;;;;21.77;13.15;;;15.70;29.70;;;;;;4971886;28;20019;-80
2022/03/13 11:55:58;;;;;;;21.10;13.15;;;16.20;29.80;;;;;;4969266;28;20375;-80
2022/03/13 11:58:53;;;;;;;21.17;13.43;;;16.30;29.40;;;;;;4967477;28;20034;-80
2022/03/13 12:01:30;;;;;;;21.70;11.93;;;16.70;29.30;;;;;;4967324;28;20043;-80
2022/03/13 12:04:04;;;;;;;21.27;12.43;;;17.30;28.10;;;;;;4970799;28;20050;-80
2022/03/13 12:07:00;;;;;;;19.30;12.20;;;17.40;27.90;;;;;;4968094;28;20026;-80
2022/03/13 12:09:32;;;;;;;23.67;13.75;;;17.80;27.00;;;;;;4965473;28;20066;-79
2022/03/13 12:12:10;;;;;;;21.15;12.48;;;18.30;26.70;;;;;;4965998;28;20027;-79
2022/03/13 12:14:55;;;;;;;20.30;12.80;;;17.70;26.80;;;;;;4967437;28;20027;-80
2022/03/13 12:17:26;;;;;;;19.40;12.88;;;17.50;27.20;;;;;;4969295;28;20094;-80
2022/03/13 12:19:54;;;;;;;18.95;13.25;;;17.90;27.40;;;;;;4970149;28;20483;-80
2022/03/13 12:22:23;;;;;;;20.33;12.82;;;18.30;26.30;;;;;;4968532;28;20043;-80
2022/03/13 12:24:51;;;;;;;20.58;13.50;;;18.40;26.20;;;;;;4969567;28;20031;-80
2022/03/13 12:27:18;;;;;;;20.10;13.63;;;18.80;26.00;;;;;;4969078;28;20109;-80
2022/03/13 12:29:55;;;;;;;18.48;13.48;;;18.90;25.80;;;;;;4967920;28;20516;-80
2022/03/13 12:32:31;;;;;;;20.88;13.07;;;18.70;25.40;;;;;;4963888;28;20042;-80
2022/03/13 12:34:58;;;;;;;20.67;13.65;;;18.70;25.30;;;;;;4969722;28;20030;-80